Dallas, Georgia
Current Conditions -  °F | °C
As of 7:15 AM on Monday 26 Jan 2015 (Local Time) from KPUJ Reporting Station
Overcast Overcast  
Wind Chill: 37°   Ceiling: 1100
Heat Index: 43°   Visibility: 10mi
Dew Point: 41°   Wind: 12mph
Humidity: 93%   Direction: 300°WNW
Pressure: 29.78"   Gusts: 22mph
Location:  33.92°N, 84.83°W
Report Text: KPUJ 261215Z AUTO 30010G19KT 260V320 10SM OVC011 06/05 A2978 RMK AO2
Loading
Personal Weather Stations






























Interactive Weather Map New forecast layout! Learn more

10-Day Weather Forecast

Advertisements
Track Severe Weather on mobile